• Join FlightAware (Why Join?)
  • Login
  • US Flag 
10:17PM EST


 

Airport Tracker/Info


-or-


 

Live Flight TrackerFlight Track Log ✈ SWA561 ✈ 07-Jul-2013 ✈ KBWI - KCLE

Flight Track Log - Related Links

Times and Time Zones

All times are in EDT time to prevent confusion due to time zone crossing. See the SWA561 flight status page for this flight to view local times or setup timezone preferences in your user account.

Time Position Orientation Groundspeed Altitude Reporting Facility
EDT Latitude Longitude Course Direction KTS MPH feet Rate Location/Type
05:18PM 39.1833 -76.7167 270° West 154 177 1,600  Level Potomac TRACON
05:19PM 39.1833 -76.7833 270° West 215 247 3,500 2,460 Climbing Potomac TRACON
05:20PM 39.1833 -76.8667 270° West 218 251 6,600 3,000 Climbing Potomac TRACON
05:22PM 39.2389 -76.9850 301° West 235 270 12,200 2,820 Climbing Washington Center
05:23PM 39.2922 -77.0558 314° West 262 302 14,900 2,400 Climbing Washington Center
05:24PM 39.3494 -77.1319 314° West 282 325 17,100 2,100 Climbing Washington Center
05:25PM 39.4153 -77.2033 320° Northwest 296 341 19,200 1,980 Climbing Washington Center
05:26PM 39.4850 -77.2828 319° Northwest 316 364 21,000 1,980 Climbing Washington Center
05:27PM 39.5358 -77.3864 302° West 331 381 23,100 1,980 Climbing Washington Center
05:28PM 39.5839 -77.5033 298° West 350 403 25,100 1,380 Climbing Washington Center
05:29PM 39.6381 -77.6261 300° West 373 429 26,000 720 Climbing Washington Center
05:31PM 39.7297 -77.8378 299° West 406 467 27,100 1,260 Climbing Cleveland Center
05:32PM 39.7936 -77.9892 299° West 430 495 29,400 1,440 Climbing Cleveland Center
05:33PM 39.8550 -78.1222 301° West 430 495 30,000 300 Climbing Cleveland Center
05:34PM 39.9347 -78.2411 311° West 430 495 30,000  Level Cleveland Center
05:35PM 40.0036 -78.3525 309° West 437 503 30,000  Level Cleveland Center
05:36PM 40.0831 -78.4747 310° West 442 509 30,000  Level Cleveland Center
05:37PM 40.1625 -78.6000 310° West 442 509 30,000  Level Cleveland Center
05:38PM 40.2417 -78.7228 310° West 442 509 30,000 -360 Level Cleveland Center
05:39PM 40.3250 -78.8483 311° West 442 509 29,300 -840 Descending Cleveland Center
05:40PM 40.3978 -78.9828 305° West 447 514 28,400 -660 Descending Cleveland Center
05:41PM 40.4747 -79.1203 306° West 459 528 28,000 -240 Descending Cleveland Center
05:42PM 40.5533 -79.2522 308° West 465 535 28,000  Level Cleveland Center
05:43PM 40.6300 -79.3903 306° West 470 541 28,000  Level Cleveland Center
05:44PM 40.7064 -79.5258 307° West 470 541 28,000  Level Cleveland Center
05:45PM 40.7828 -79.6672 306° West 470 541 28,000  Level Cleveland Center
05:46PM 40.8608 -79.8033 307° West 470 541 28,000 -300 Level Cleveland Center
05:47PM 40.9367 -79.9428 306° West 470 541 27,500 -720 Descending Cleveland Center
05:48PM 41.0125 -80.0822 306° West 470 541 26,600 -960 Descending Cleveland Center
05:49PM 41.0881 -80.2222 306° West 470 541 25,600 -1,320 Descending Cleveland Center
05:50PM 41.1678 -80.3736 305° West 470 541 24,000 -1,800 Descending Cleveland Center
05:51PM 41.2344 -80.5031 304° West 443 510 22,000 -2,460 Descending Cleveland Center
05:52PM 41.2928 -80.6383 300° West 428 493 19,100 -2,760 Descending Cleveland Center
05:53PM 41.3492 -80.7656 301° West 408 470 16,500 -2,520 Descending Cleveland Center
05:54PM 41.3803 -80.8489 296° West 397 457 15,100 -2,340 Descending Cleveland Center
05:54PM 41.4217 -80.9403 301° West 385 443 13,300 -2,160 Descending Cleveland Center
05:55PM 41.4464 -81.0042 297° West 391 450 12,100 -2,040 Descending Cleveland Center
05:56PM 41.4667 -81.1317 282° West 367 422 10,100 -1,320 Descending Cleveland Center
05:57PM 41.4850 -81.2428 282° West 339 390 9,500 -1,140 Descending Cleveland Center
05:58PM 41.4967 -81.3456 279° West 299 344 7,900 -1,680 Descending Cleveland Center
05:59PM 41.5044 -81.4317 277° West 271 312 6,600 -1,680 Descending Cleveland Center
05:59PM 41.5103 -81.5008 276° West 264 304 5,500 -1,320 Descending Cleveland Center
06:00PM 41.5161 -81.5369 282° West 269 310 5,000 -1,020 Descending Cleveland Center
06:00PM 41.5197 -81.6036 274° West 233 268 4,400 -1,080 Descending Cleveland Center
06:02PM 41.5147 -81.6869 265° West 225 259 3,300 -840 Descending Cleveland Center
06:03PM 41.4767 -81.7500 231° Southwest 213 245 2,700 -720 Descending Cleveland Center
06:04PM 41.4428 -81.8047 230° Southwest 132 152 1,700 -780 Descending Cleveland Center
06:05PM 41.4172 -81.8403 226° Southwest 131 151 1,000 -720 Descending Cleveland Center
06:07PM 41.4000 -81.8500 252° West  Level FlightAware Approximate